Time;durP1;ratioP1;P1;durP2;ratioP2;P2;SDS_P1;SDS_P2;PMS_P1;PMS_P2;Temp;Humidity;BMP_temperature;BMP_pressure;BME280_temperature;BME280_humidity;BME280_pressure;Samples;Min_cycle;Max_cycle;Signal;HPM_P1;HPM_P2
2022/07/12 00:01:18;;;;;;;2.33;2.10;;;16.30;99.90;;;;;;5043197;28;20045;-68
2022/07/12 00:03:43;;;;;;;3.03;2.15;;;16.30;99.90;;;;;;5047500;28;20049;-68
2022/07/12 00:06:09;;;;;;;2.47;1.88;;;16.20;99.90;;;;;;5045344;28;20066;-67
2022/07/12 00:08:35;;;;;;;4.07;2.25;;;16.20;99.90;;;;;;5061682;28;20406;-67
2022/07/12 00:11:00;;;;;;;2.28;1.70;;;16.10;99.90;;;;;;5042463;28;20138;-68
2022/07/12 00:13:26;;;;;;;3.30;2.00;;;16.00;99.90;;;;;;5050086;28;20041;-68
2022/07/12 00:15:52;;;;;;;2.97;1.83;;;15.90;99.90;;;;;;5042594;28;20063;-68
2022/07/12 00:18:17;;;;;;;3.95;1.92;;;15.70;99.90;;;;;;5047950;28;20041;-67
2022/07/12 00:20:43;;;;;;;2.08;1.63;;;15.50;99.90;;;;;;5065801;28;20048;-68
2022/07/12 00:23:09;;;;;;;2.45;1.90;;;15.30;99.90;;;;;;5040364;28;20052;-68
2022/07/12 00:25:34;;;;;;;3.03;2.20;;;15.30;99.90;;;;;;5065306;28;20043;-68
2022/07/12 00:28:00;;;;;;;2.83;1.75;;;15.10;99.90;;;;;;5047020;28;20053;-68
2022/07/12 00:30:26;;;;;;;3.47;2.58;;;15.10;99.90;;;;;;5045152;28;20033;-68
2022/07/12 00:32:51;;;;;;;2.72;2.00;;;15.00;99.90;;;;;;5047210;28;20049;-68
2022/07/12 00:35:17;;;;;;;3.08;1.90;;;15.00;99.90;;;;;;5042166;28;20045;-68
2022/07/12 00:37:42;;;;;;;3.25;2.20;;;15.00;99.90;;;;;;5031290;28;20058;-68
2022/07/12 00:40:10;;;;;;;2.60;2.05;;;14.90;99.90;;;;;;5046723;28;20044;-68
2022/07/12 00:42:38;;;;;;;3.47;2.03;;;14.80;99.90;;;;;;5040387;28;20398;-67
2022/07/12 00:45:06;;;;;;;3.65;2.15;;;14.80;99.90;;;;;;5044903;28;20049;-67
2022/07/12 00:47:37;;;;;;;2.72;2.20;;;14.60;99.90;;;;;;5046055;28;20071;-68
2022/07/12 00:50:15;;;;;;;4.43;2.58;;;14.70;99.90;;;;;;5042241;28;20052;-68
2022/07/12 00:52:42;;;;;;;3.80;2.22;;;14.70;99.90;;;;;;5030112;28;20107;-68
2022/07/12 00:55:10;;;;;;;3.30;1.75;;;14.60;99.90;;;;;;5053717;28;20113;-68
2022/07/12 00:57:36;;;;;;;2.33;1.85;;;14.50;99.90;;;;;;5060837;28;20041;-67
2022/07/12 01:00:06;;;;;;;2.60;2.00;;;14.50;99.90;;;;;;5046580;28;20052;-68
2022/07/12 01:02:32;;;;;;;3.92;1.88;;;14.50;99.90;;;;;;5064540;28;20049;-68
2022/07/12 01:04:58;;;;;;;2.53;1.98;;;14.30;99.90;;;;;;5055070;28;20579;-67
2022/07/12 01:07:25;;;;;;;2.97;1.73;;;14.20;99.90;;;;;;5049040;28;20124;-68
2022/07/12 01:09:52;;;;;;;2.72;1.70;;;14.10;99.90;;;;;;5046593;28;20076;-67
2022/07/12 01:12:18;;;;;;;2.60;1.85;;;14.10;99.90;;;;;;5046363;28;20037;-68
2022/07/12 01:14:45;;;;;;;2.97;2.00;;;14.10;99.90;;;;;;5062436;28;20103;-67
2022/07/12 01:17:13;;;;;;;2.60;1.90;;;14.10;99.90;;;;;;5059095;28;20048;-68
2022/07/12 01:19:40;;;;;;;2.28;2.00;;;14.10;99.90;;;;;;5062176;28;20040;-68
2022/07/12 01:22:16;;;;;;;2.10;1.70;;;14.00;99.90;;;;;;5063419;28;20134;-67
2022/07/12 01:24:43;;;;;;;1.92;1.58;;;14.10;99.90;;;;;;5044271;28;20117;-68
2022/07/12 01:27:10;;;;;;;2.38;1.40;;;13.90;99.90;;;;;;5045757;28;20071;-68
2022/07/12 01:29:36;;;;;;;1.92;1.60;;;13.80;99.90;;;;;;5030233;28;20527;-67
2022/07/12 01:32:24;;;;;;;6.45;2.08;;;13.70;99.90;;;;;;5052973;28;20049;-68
2022/07/12 01:34:52;;;;;;;2.50;1.48;;;13.60;99.90;;;;;;5059207;28;20045;-67
2022/07/12 01:37:19;;;;;;;3.13;1.77;;;13.50;99.90;;;;;;5058152;28;20041;-68
2022/07/12 01:39:46;;;;;;;2.65;1.90;;;13.40;99.90;;;;;;5061716;28;20045;-67
2022/07/12 01:42:12;;;;;;;5.75;2.17;;;13.40;99.90;;;;;;5046180;28;20041;-68
2022/07/12 01:44:38;;;;;;;2.58;1.75;;;13.40;99.90;;;;;;5059362;28;20056;-68
2022/07/12 01:47:04;;;;;;;7.38;1.95;;;13.40;99.90;;;;;;5046493;28;20048;-68
2022/07/12 01:49:30;;;;;;;4.85;2.08;;;13.30;99.90;;;;;;5060819;28;20059;-68
2022/07/12 01:51:57;;;;;;;3.20;2.13;;;13.30;99.90;;;;;;5045427;28;20108;-68
2022/07/12 01:54:25;;;;;;;2.15;1.80;;;13.30;99.90;;;;;;5042677;28;20049;-68
2022/07/12 01:56:52;;;;;;;2.10;1.80;;;13.30;99.90;;;;;;5063882;28;20029;-68
2022/07/12 01:59:19;;;;;;;2.22;1.80;;;13.30;99.90;;;;;;5048354;28;20055;-67
2022/07/12 02:01:45;;;;;;;1.80;1.60;;;13.20;99.90;;;;;;5040146;28;20049;-67
2022/07/12 02:04:15;;;;;;;1.20;1.10;;;13.20;99.90;;;;;;5045590;28;20721;-68
2022/07/12 02:06:42;;;;;;;1.63;1.40;;;13.20;99.90;;;;;;5040979;28;20524;-67
2022/07/12 02:09:07;;;;;;;1.50;1.40;;;13.20;99.90;;;;;;5023677;28;20091;-67
2022/07/12 02:11:33;;;;;;;1.65;1.40;;;13.10;99.90;;;;;;5036226;28;20501;-67
2022/07/12 02:13:59;;;;;;;24.17;1.90;;;13.00;99.90;;;;;;5059265;28;20044;-67
2022/07/12 02:16:24;;;;;;;7.25;1.30;;;13.00;99.90;;;;;;5062215;28;20037;-68
2022/07/12 02:18:50;;;;;;;14.85;1.40;;;13.10;99.90;;;;;;5057877;28;20049;-67
2022/07/12 02:21:15;;;;;;;16.38;1.67;;;13.00;99.90;;;;;;5047311;28;20580;-67
2022/07/12 02:23:41;;;;;;;4.47;1.15;;;12.90;99.90;;;;;;5048111;28;20110;-67
2022/07/12 02:26:07;;;;;;;2.45;1.30;;;12.80;99.90;;;;;;5050511;28;20045;-68
2022/07/12 02:28:33;;;;;;;2.83;1.95;;;12.80;99.90;;;;;;5047846;28;20053;-67
2022/07/12 02:30:59;;;;;;;2.50;2.00;;;12.70;99.90;;;;;;5052502;28;20052;-67
2022/07/12 02:33:25;;;;;;;21.35;2.30;;;12.70;99.90;;;;;;5058613;28;20528;-68
2022/07/12 02:35:50;;;;;;;16.17;3.10;;;12.60;99.90;;;;;;5046567;28;20063;-68
2022/07/12 02:38:16;;;;;;;10.30;3.47;;;12.60;99.90;;;;;;5049508;28;20041;-67
2022/07/12 02:40:54;;;;;;;4.75;2.97;;;12.50;99.90;;;;;;5043702;28;20065;-67
2022/07/12 02:43:28;;;;;;;3.45;2.40;;;12.60;99.90;;;;;;5033464;28;20048;-68
2022/07/12 02:45:56;;;;;;;35.30;3.67;;;12.60;99.90;;;;;;5049402;28;20049;-68
2022/07/12 02:48:22;;;;;;;7.57;2.05;;;12.50;99.90;;;;;;5046868;28;20072;-68
2022/07/12 02:50:48;;;;;;;2.17;1.60;;;12.50;99.90;;;;;;5047442;28;20930;-67
2022/07/12 02:53:14;;;;;;;2.85;1.60;;;12.50;99.90;;;;;;5046784;28;20064;-67
2022/07/12 02:55:40;;;;;;;1.55;1.45;;;12.40;99.90;;;;;;5049243;28;20053;-67
2022/07/12 02:58:06;;;;;;;12.00;2.08;;;12.40;99.90;;;;;;5049902;28;20076;-68
2022/07/12 03:00:32;;;;;;;56.20;4.50;;;12.30;99.90;;;;;;5030608;28;20041;-67
2022/07/12 03:02:58;;;;;;;4.85;3.13;;;12.50;99.90;;;;;;5052996;28;20050;-68
2022/07/12 03:05:24;;;;;;;6.25;2.97;;;12.50;99.90;;;;;;5066781;28;20505;-68
2022/07/12 03:07:50;;;;;;;40.22;4.47;;;12.50;99.90;;;;;;5044215;28;20072;-68
2022/07/12 03:10:16;;;;;;;37.72;4.47;;;12.50;99.90;;;;;;5048104;28;20056;-67
2022/07/12 03:12:42;;;;;;;39.42;3.15;;;12.50;99.90;;;;;;5048314;28;20041;-67
2022/07/12 03:15:08;;;;;;;51.25;4.10;;;12.40;99.90;;;;;;5030373;28;20049;-68
2022/07/12 03:17:34;;;;;;;13.80;2.58;;;12.40;99.90;;;;;;5047781;28;20049;-67
2022/07/12 03:20:00;;;;;;;47.72;5.22;;;12.40;99.90;;;;;;5064968;28;20041;-67
2022/07/12 03:22:26;;;;;;;2.53;2.00;;;12.40;99.90;;;;;;5046506;28;20048;-67
2022/07/12 03:24:52;;;;;;;2.35;1.83;;;12.30;99.90;;;;;;5046911;28;20064;-68
2022/07/12 03:27:18;;;;;;;4.28;2.33;;;12.30;99.90;;;;;;5047190;28;20045;-68
2022/07/12 03:29:44;;;;;;;2.22;1.90;;;12.40;99.90;;;;;;5046318;28;20079;-67
2022/07/12 03:32:09;;;;;;;3.60;1.92;;;12.30;99.90;;;;;;5034901;28;20052;-67
2022/07/12 03:34:36;;;;;;;2.47;2.10;;;12.30;99.90;;;;;;5048349;28;20068;-67
2022/07/12 03:37:02;;;;;;;2.55;2.20;;;12.30;99.90;;;;;;5064232;28;20043;-67
2022/07/12 03:39:28;;;;;;;2.38;2.00;;;12.20;99.90;;;;;;5048368;28;20045;-67
2022/07/12 03:41:54;;;;;;;2.17;1.75;;;12.20;99.90;;;;;;5048069;28;20292;-68
2022/07/12 03:44:20;;;;;;;2.65;2.13;;;12.10;99.90;;;;;;5048221;28;20053;-67
2022/07/12 03:46:46;;;;;;;3.42;2.40;;;12.10;99.90;;;;;;5034778;28;20045;-67
2022/07/12 03:49:12;;;;;;;3.35;2.20;;;12.00;99.90;;;;;;5047741;28;20106;-68
2022/07/12 03:51:37;;;;;;;2.17;1.85;;;11.90;99.90;;;;;;5049782;28;20045;-67
2022/07/12 03:54:05;;;;;;;2.95;2.30;;;11.80;99.90;;;;;;5046110;28;20070;-67
2022/07/12 03:59:15;;;;;;;3.08;1.63;;;11.90;99.90;;;;;;5049893;28;20056;-67
2022/07/12 04:01:40;;;;;;;2.28;1.70;;;12.00;99.90;;;;;;5057424;28;20077;-67
2022/07/12 04:04:06;;;;;;;1.65;1.40;;;12.00;99.90;;;;;;5039062;28;20045;-67
2022/07/12 04:06:32;;;;;;;5.88;1.90;;;12.10;99.90;;;;;;5064954;28;20037;-67
2022/07/12 04:08:57;;;;;;;77.30;5.78;;;12.20;99.90;;;;;;5063402;28;20097;-67
2022/07/12 04:11:23;;;;;;;48.60;4.68;;;12.20;99.90;;;;;;5063652;28;20048;-67
2022/07/12 04:13:49;;;;;;;8.98;3.33;;;12.20;99.90;;;;;;5065005;28;20040;-67
2022/07/12 04:16:14;;;;;;;64.10;5.00;;;12.20;99.90;;;;;;5047715;28;20040;-67
2022/07/12 04:18:40;;;;;;;3.90;2.70;;;12.30;99.90;;;;;;5065304;28;20036;-67
2022/07/12 04:21:05;;;;;;;11.70;3.15;;;12.30;99.90;;;;;;5065313;28;20048;-67
2022/07/12 04:23:31;;;;;;;5.43;2.85;;;12.30;99.90;;;;;;5048199;28;20567;-67
2022/07/12 04:25:57;;;;;;;2.38;2.00;;;12.30;99.90;;;;;;5045583;28;20116;-67
2022/07/12 04:28:22;;;;;;;3.45;2.72;;;12.30;99.90;;;;;;5043234;28;20122;-67
2022/07/12 04:30:48;;;;;;;5.00;3.05;;;12.40;99.90;;;;;;5064136;28;20053;-67
2022/07/12 04:33:14;;;;;;;5.05;2.95;;;12.50;99.90;;;;;;5044052;28;20136;-67
2022/07/12 04:35:40;;;;;;;3.30;2.50;;;12.60;99.90;;;;;;5043699;28;20049;-67
2022/07/12 04:38:07;;;;;;;5.28;3.10;;;12.60;99.90;;;;;;5046493;28;20055;-67
2022/07/12 04:40:33;;;;;;;4.30;3.08;;;12.70;99.90;;;;;;5064544;28;20029;-67
2022/07/12 04:42:59;;;;;;;3.95;2.67;;;12.70;99.90;;;;;;5027240;28;20501;-67
2022/07/12 04:45:25;;;;;;;5.20;3.45;;;12.70;99.90;;;;;;5039050;28;20041;-67
2022/07/12 04:47:51;;;;;;;3.45;2.58;;;12.80;99.90;;;;;;5036842;28;20057;-67
2022/07/12 04:50:17;;;;;;;3.65;2.70;;;12.80;99.90;;;;;;5051555;28;20093;-67
2022/07/12 04:52:42;;;;;;;6.50;3.03;;;12.90;99.90;;;;;;5032434;28;20047;-67
2022/07/12 04:55:08;;;;;;;3.15;2.45;;;13.00;99.90;;;;;;5058071;28;20033;-67
2022/07/12 04:57:34;;;;;;;5.72;2.50;;;12.90;99.90;;;;;;5037712;28;20065;-68
2022/07/12 05:00:00;;;;;;;4.10;2.70;;;13.00;99.90;;;;;;5047335;28;20055;-67
2022/07/12 05:02:26;;;;;;;5.72;2.78;;;13.00;99.90;;;;;;5064915;28;20041;-67
2022/07/12 05:04:52;;;;;;;5.38;2.92;;;13.00;99.90;;;;;;5064511;28;20497;-67
2022/07/12 05:07:18;;;;;;;5.85;2.60;;;13.10;99.90;;;;;;5063374;28;20112;-67
2022/07/12 05:09:43;;;;;;;6.05;3.15;;;13.10;99.90;;;;;;5048971;28;20405;-67
2022/07/12 05:12:09;;;;;;;5.10;3.08;;;13.30;99.90;;;;;;5047193;28;20045;-67
2022/07/12 05:14:35;;;;;;;6.00;3.08;;;13.30;99.90;;;;;;5039756;28;20052;-67
2022/07/12 05:17:00;;;;;;;3.65;2.65;;;13.40;99.90;;;;;;5044418;28;20080;-67
2022/07/12 05:19:26;;;;;;;5.03;2.65;;;13.40;99.90;;;;;;5045827;28;20131;-68
2022/07/12 05:21:52;;;;;;;3.85;2.45;;;13.50;99.90;;;;;;5061843;28;20048;-69
2022/07/12 05:24:18;;;;;;;4.95;4.13;;;13.60;99.90;;;;;;5036774;28;20072;-68
2022/07/12 05:26:43;;;;;;;6.57;4.88;;;13.70;99.90;;;;;;5042023;28;20056;-69
2022/07/12 05:29:09;;;;;;;6.38;4.72;;;13.80;99.90;;;;;;5019724;28;20577;-66
2022/07/12 05:31:35;;;;;;;9.60;6.65;;;13.90;99.90;;;;;;5045826;28;20056;-67
2022/07/12 05:34:01;;;;;;;9.43;6.85;;;14.10;99.90;;;;;;5031443;28;20041;-66
2022/07/12 05:36:28;;;;;;;10.38;7.38;;;14.10;99.90;;;;;;4999887;28;20061;-66
2022/07/12 05:38:53;;;;;;;9.15;6.68;;;14.20;99.90;;;;;;5042699;28;20105;-66
2022/07/12 05:41:19;;;;;;;10.50;7.72;;;14.30;99.90;;;;;;5055597;28;20076;-66
2022/07/12 05:43:45;;;;;;;10.48;6.70;;;14.30;99.90;;;;;;5032576;28;20068;-66
2022/07/12 05:46:11;;;;;;;9.52;7.57;;;14.40;99.90;;;;;;5040530;28;20053;-66
2022/07/12 05:48:38;;;;;;;9.93;7.00;;;14.40;99.90;;;;;;5035388;28;20049;-67
2022/07/12 05:53:48;;;;;;;9.40;7.28;;;14.50;99.90;;;;;;5009281;28;20626;-66
2022/07/12 05:56:14;;;;;;;9.30;7.70;;;14.60;99.90;;;;;;5030442;28;20073;-67
2022/07/12 05:58:40;;;;;;;9.45;7.43;;;14.70;99.90;;;;;;5055299;28;20098;-67
2022/07/12 06:01:06;;;;;;;12.07;9.38;;;14.80;99.90;;;;;;5050485;28;20344;-69
2022/07/12 06:03:32;;;;;;;11.35;8.18;;;15.00;99.90;;;;;;5025725;28;20052;-67
2022/07/12 06:05:58;;;;;;;11.60;8.60;;;15.10;99.90;;;;;;5073723;28;20092;-67
2022/07/12 06:08:24;;;;;;;11.15;7.88;;;15.20;99.90;;;;;;5072760;28;20044;-67
2022/07/12 06:10:50;;;;;;;11.40;8.68;;;15.30;99.90;;;;;;5068425;28;20051;-66
2022/07/12 06:13:16;;;;;;;9.93;8.32;;;15.40;99.90;;;;;;5049393;28;20386;-67
2022/07/12 06:15:42;;;;;;;10.52;8.77;;;15.40;99.90;;;;;;5037199;28;20044;-67
2022/07/12 06:18:07;;;;;;;9.77;8.02;;;15.50;99.90;;;;;;5049852;28;20063;-67
2022/07/12 06:20:33;;;;;;;11.70;8.93;;;15.60;99.90;;;;;;5064712;28;20044;-67
2022/07/12 06:22:59;;;;;;;12.18;8.52;;;15.70;99.90;;;;;;5054111;28;20053;-67
2022/07/12 06:25:24;;;;;;;9.90;8.38;;;15.70;99.90;;;;;;5063591;28;20051;-66
2022/07/12 06:27:50;;;;;;;9.68;7.85;;;15.80;99.90;;;;;;5051051;28;20155;-67
2022/07/12 06:30:20;;;;;;;11.68;8.40;;;15.80;99.90;;;;;;5033366;28;20061;-64
2022/07/12 06:32:47;;;;;;;10.57;8.85;;;15.90;99.90;;;;;;5050785;28;20488;-65
2022/07/12 06:35:14;;;;;;;11.82;9.02;;;16.00;99.90;;;;;;5060089;28;20051;-66
2022/07/12 06:37:40;;;;;;;10.80;8.82;;;16.00;99.90;;;;;;5051697;28;20052;-65
2022/07/12 06:40:06;;;;;;;12.18;9.27;;;16.10;99.90;;;;;;5061855;28;20527;-69
2022/07/12 06:42:32;;;;;;;10.13;8.25;;;16.10;99.90;;;;;;5056778;28;20040;-66
2022/07/12 06:44:58;;;;;;;11.25;8.52;;;16.20;99.90;;;;;;5072960;28;20041;-68
2022/07/12 06:47:24;;;;;;;9.70;8.57;;;16.20;99.90;;;;;;5053394;28;20045;-66
2022/07/12 06:49:50;;;;;;;12.30;8.73;;;16.20;99.90;;;;;;5079765;28;20052;-66
2022/07/12 06:52:15;;;;;;;12.30;9.00;;;16.40;99.90;;;;;;5049410;28;20465;-66
2022/07/12 06:54:41;;;;;;;10.05;8.90;;;16.40;99.90;;;;;;5078329;28;20052;-66
2022/07/12 06:57:07;;;;;;;12.18;9.10;;;16.40;99.90;;;;;;5049554;28;20112;-66
2022/07/12 06:59:32;;;;;;;10.32;8.52;;;16.50;99.90;;;;;;5060593;28;20056;-66
2022/07/12 07:01:58;;;;;;;11.43;9.02;;;16.50;99.90;;;;;;5049830;28;20060;-66
2022/07/12 07:04:24;;;;;;;10.00;8.57;;;16.50;99.90;;;;;;5059076;28;20041;-66
2022/07/12 07:06:51;;;;;;;9.55;7.93;;;16.50;99.90;;;;;;5066796;28;20044;-66
2022/07/12 07:09:16;;;;;;;11.60;8.27;;;16.60;99.90;;;;;;5043251;28;20044;-66
2022/07/12 07:11:42;;;;;;;10.05;8.15;;;16.60;99.90;;;;;;5067642;28;20032;-67
2022/07/12 07:14:08;;;;;;;18.95;9.20;;;16.60;99.90;;;;;;5060513;28;20045;-66
2022/07/12 07:16:34;;;;;;;9.43;8.15;;;16.70;99.90;;;;;;5046973;28;20045;-66
2022/07/12 07:18:59;;;;;;;11.15;9.63;;;16.70;99.90;;;;;;5070021;28;20093;-66
2022/07/12 07:21:25;;;;;;;11.85;10.05;;;16.80;99.90;;;;;;5069898;28;20044;-66
2022/07/12 07:23:54;;;;;;;10.38;8.40;;;16.80;99.90;;;;;;5038576;28;20056;-66
2022/07/12 07:26:21;;;;;;;11.35;8.68;;;16.90;99.90;;;;;;5058843;28;20080;-66
2022/07/12 07:31:38;;;;;;;10.63;8.93;;;17.00;99.90;;;;;;5060868;28;20056;-66
2022/07/12 07:34:04;;;;;;;10.13;9.00;;;17.10;99.90;;;;;;5043264;28;20121;-66
2022/07/12 07:36:30;;;;;;;11.30;8.82;;;17.10;99.90;;;;;;5067210;28;20113;-66
2022/07/12 07:38:57;;;;;;;10.48;8.25;;;17.20;99.90;;;;;;5052256;28;20083;-66
2022/07/12 07:41:23;;;;;;;11.70;8.30;;;17.30;99.90;;;;;;5061056;28;20520;-66
2022/07/12 07:43:49;;;;;;;9.20;7.70;;;17.30;99.90;;;;;;5040868;28;20052;-66
2022/07/12 07:46:14;;;;;;;8.90;7.55;;;17.40;99.90;;;;;;5064085;28;20080;-66
2022/07/12 07:48:40;;;;;;;10.52;7.72;;;17.40;99.90;;;;;;5043262;28;20064;-68
2022/07/12 07:51:06;;;;;;;9.70;7.03;;;17.50;99.90;;;;;;5029005;28;20036;-67
2022/07/12 07:53:31;;;;;;;10.13;8.18;;;17.50;99.90;;;;;;5047930;28;20091;-67
2022/07/12 07:55:57;;;;;;;11.43;7.05;;;17.70;99.90;;;;;;5071662;28;20052;-67
2022/07/12 07:58:24;;;;;;;9.93;7.35;;;17.80;99.90;;;;;;5054443;28;20091;-66
2022/07/12 08:00:50;;;;;;;8.02;6.20;;;18.00;99.90;;;;;;5057080;28;20049;-67
2022/07/12 08:03:17;;;;;;;10.60;7.03;;;18.10;99.90;;;;;;5046187;28;20059;-66
2022/07/12 08:05:43;;;;;;;9.52;7.10;;;18.20;99.90;;;;;;5071801;28;20048;-66
2022/07/12 08:08:08;;;;;;;9.18;6.45;;;18.30;99.90;;;;;;5038634;28;20048;-67
2022/07/12 08:10:34;;;;;;;7.35;6.10;;;18.30;99.90;;;;;;5056037;28;20052;-66
2022/07/12 08:13:00;;;;;;;7.43;5.57;;;18.40;99.90;;;;;;5039482;28;20108;-66
2022/07/12 08:15:26;;;;;;;6.38;5.05;;;18.40;99.90;;;;;;5054199;28;20079;-66
2022/07/12 08:17:51;;;;;;;7.05;5.03;;;18.60;99.90;;;;;;5043698;28;20060;-66
2022/07/12 08:20:17;;;;;;;7.30;5.72;;;18.60;99.90;;;;;;5053406;28;20543;-66
2022/07/12 08:22:47;;;;;;;5.07;4.35;;;18.80;99.90;;;;;;5039336;28;20049;-66
2022/07/12 08:25:13;;;;;;;;;;;18.80;99.90;;;;;;5065673;28;20043;-67
2022/07/12 08:27:39;;;;;;;5.72;5.13;;;18.90;99.90;;;;;;5048737;28;19959;-67
2022/07/12 08:30:06;;;;;;;6.45;5.25;;;19.10;99.90;;;;;;5017493;28;20059;-67
2022/07/12 08:32:31;;;;;;;6.32;5.40;;;19.20;99.90;;;;;;5066593;28;20063;-66
2022/07/12 08:34:57;;;;;;;5.20;4.70;;;19.20;99.90;;;;;;5044154;28;20040;-66
2022/07/12 08:37:23;;;;;;;5.93;5.10;;;19.40;99.90;;;;;;5058190;28;20049;-66
2022/07/12 08:39:49;;;;;;;5.70;4.60;;;19.40;99.90;;;;;;5042867;28;20079;-67
2022/07/12 08:42:16;;;;;;;5.35;4.85;;;19.50;99.90;;;;;;5047823;28;20050;-67
2022/07/12 08:44:43;;;;;;;6.28;4.68;;;19.60;99.90;;;;;;5038491;28;20056;-68
2022/07/12 08:47:09;;;;;;;4.65;4.15;;;19.80;99.90;;;;;;5062949;28;20208;-68
2022/07/12 08:49:38;;;;;;;6.63;4.50;;;19.80;99.90;;;;;;5075806;28;20520;-68
2022/07/12 08:52:33;;;;;;;5.13;4.07;;;19.80;99.90;;;;;;5050167;28;20070;-69
2022/07/12 08:54:58;;;;;;;6.32;4.75;;;19.80;99.90;;;;;;5045197;28;20061;-68
2022/07/12 08:57:31;;;;;;;8.25;4.45;;;20.00;99.90;;;;;;5033087;28;20143;-69
2022/07/12 09:00:01;;;;;;;5.03;4.53;;;20.10;99.90;;;;;;5046403;28;20052;-69
2022/07/12 09:02:27;;;;;;;;;;;20.20;99.90;;;;;;5038482;28;20094;-68
2022/07/12 09:05:09;;;;;;;5.50;4.28;;;20.20;99.90;;;;;;5035485;28;19920;-68
2022/07/12 09:07:35;;;;;;;7.25;5.40;;;20.20;99.90;;;;;;5047722;28;20053;-68
2022/07/12 09:10:06;;;;;;;5.07;4.57;;;20.20;99.90;;;;;;5066818;28;20048;-68
2022/07/12 09:12:34;;;;;;;4.10;3.58;;;20.30;99.90;;;;;;5049505;28;20095;-67
2022/07/12 09:15:15;;;;;;;7.00;4.40;;;20.40;99.90;;;;;;5045661;28;20053;-69
2022/07/12 09:17:46;;;;;;;6.00;4.90;;;20.40;99.90;;;;;;5046437;28;20506;-66
2022/07/12 09:20:13;;;;;;;7.35;5.10;;;20.50;99.90;;;;;;5057333;28;20044;-68
2022/07/12 09:22:51;;;;;;;6.07;4.97;;;20.60;99.90;;;;;;5049194;28;20048;-67
2022/07/12 09:25:18;;;;;;;5.78;4.00;;;20.60;99.90;;;;;;5054712;28;20045;-67
2022/07/12 09:27:56;;;;;;;6.05;3.22;;;20.70;99.90;;;;;;5039989;28;20049;-67
2022/07/12 09:30:27;;;;;;;6.45;4.88;;;20.80;99.90;;;;;;5032529;28;20045;-67
2022/07/12 09:36:10;;;;;;;6.22;4.50;;;20.80;99.90;;;;;;5061865;28;20051;-67
2022/07/12 09:38:37;;;;;;;7.95;5.63;;;20.90;99.90;;;;;;5060186;28;20056;-67
2022/07/12 09:41:04;;;;;;;6.00;5.40;;;21.00;99.90;;;;;;5052612;28;20049;-67
2022/07/12 09:43:30;;;;;;;6.88;5.57;;;21.10;99.90;;;;;;5051636;28;20128;-67
2022/07/12 09:45:57;;;;;;;6.65;4.72;;;21.20;99.90;;;;;;5042684;28;20048;-67
2022/07/12 09:48:25;;;;;;;4.40;3.78;;;21.30;99.90;;;;;;5049312;28;20134;-67
2022/07/12 09:50:51;;;;;;;7.38;5.72;;;21.40;99.90;;;;;;5052352;28;20741;-67
2022/07/12 09:53:37;;;;;;;6.35;4.28;;;21.50;99.90;;;;;;5027922;28;20408;-67
2022/07/12 09:56:05;;;;;;;4.47;3.80;;;21.60;99.90;;;;;;5025328;28;20081;-67
2022/07/12 09:58:36;;;;;;;5.05;3.30;;;21.70;99.90;;;;;;5022800;28;20053;-67
2022/07/12 10:01:02;;;;;;;4.65;4.05;;;21.60;99.90;;;;;;5033698;28;20404;-67
2022/07/12 10:03:33;;;;;;;6.72;5.22;;;21.70;99.90;;;;;;5028848;28;20057;-67
2022/07/12 10:06:02;;;;;;;5.60;4.88;;;21.80;99.90;;;;;;5051614;28;20051;-68
2022/07/12 10:08:30;;;;;;;7.35;5.78;;;21.80;99.90;;;;;;5042081;28;20339;-67
2022/07/12 10:10:57;;;;;;;5.80;4.38;;;21.80;99.90;;;;;;5038159;28;20063;-68
2022/07/12 10:13:23;;;;;;;4.20;3.75;;;21.90;99.90;;;;;;5045795;28;20087;-67
2022/07/12 10:15:50;;;;;;;3.20;2.85;;;21.90;99.90;;;;;;5055374;28;20091;-68
2022/07/12 10:18:20;;;;;;;3.70;2.28;;;22.00;99.90;;;;;;5044801;28;20045;-67
2022/07/12 10:20:47;;;;;;;6.35;3.70;;;22.00;99.90;;;;;;5053873;28;20059;-67
2022/07/12 10:23:19;;;;;;;4.07;3.67;;;22.10;99.90;;;;;;5045953;28;20052;-67
2022/07/12 10:25:45;;;;;;;3.30;3.00;;;22.10;99.90;;;;;;5053427;28;20048;-67
2022/07/12 10:28:10;;;;;;;3.17;2.85;;;22.20;99.90;;;;;;5045745;28;20151;-67
2022/07/12 10:30:44;;;;;;;3.75;2.97;;;22.40;99.90;;;;;;5037573;28;20053;-67
2022/07/12 10:33:19;;;;;;;3.63;3.33;;;22.30;99.90;;;;;;5052803;28;20121;-66
2022/07/12 10:35:59;;;;;;;5.82;3.70;;;22.30;99.90;;;;;;5040666;28;20052;-67
2022/07/12 10:38:25;;;;;;;3.50;2.60;;;22.50;99.90;;;;;;5045028;28;20079;-66
2022/07/12 10:40:52;;;;;;;3.03;1.98;;;22.50;99.90;;;;;;5053120;28;20052;-67
2022/07/12 10:43:22;;;;;;;2.55;2.20;;;22.50;99.90;;;;;;5048991;28;20051;-66
2022/07/12 10:45:49;;;;;;;1.85;1.50;;;22.60;99.90;;;;;;5059879;28;20261;-66
2022/07/12 10:48:15;;;;;;;2.42;1.30;;;22.60;99.90;;;;;;5049391;28;20051;-65
2022/07/12 10:50:48;;;;;;;4.43;2.95;;;22.60;99.90;;;;;;5056922;28;20049;-66
2022/07/12 10:53:37;;;;;;;3.22;2.90;;;22.60;99.90;;;;;;5050369;28;20139;-66
2022/07/12 10:56:15;;;;;;;3.03;2.30;;;22.70;99.90;;;;;;5059146;28;20068;-66
2022/07/12 10:58:53;;;;;;;2.72;1.75;;;22.90;99.90;;;;;;5049423;28;20545;-66
2022/07/12 11:01:24;;;;;;;4.47;2.50;;;23.00;99.90;;;;;;5039898;28;20119;-66
2022/07/12 11:03:55;;;;;;;4.40;2.97;;;23.10;99.90;;;;;;5049098;28;20055;-66
2022/07/12 11:06:25;;;;;;;5.32;2.78;;;23.10;99.90;;;;;;5059502;28;20055;-66
2022/07/12 11:08:55;;;;;;;2.72;2.20;;;23.20;99.90;;;;;;5045996;28;20704;-66
2022/07/12 11:11:22;;;;;;;3.25;2.25;;;23.30;99.90;;;;;;5058786;28;20058;-66
2022/07/12 11:13:48;;;;;;;3.75;2.63;;;23.60;99.90;;;;;;5049748;28;20053;-66
2022/07/12 11:16:14;;;;;;;4.50;2.50;;;23.50;99.90;;;;;;5060048;28;20340;-66
2022/07/12 11:18:40;;;;;;;3.63;2.05;;;23.50;99.90;;;;;;5049063;28;20105;-66
2022/07/12 11:21:06;;;;;;;1.63;1.45;;;23.50;99.90;;;;;;5060638;28;20037;-70
2022/07/12 11:23:32;;;;;;;1.55;1.30;;;23.60;99.90;;;;;;5048627;28;20056;-68
2022/07/12 11:25:59;;;;;;;1.80;1.70;;;23.70;99.90;;;;;;5055996;28;20191;-68
2022/07/12 11:28:27;;;;;;;2.28;1.35;;;23.90;99.90;;;;;;5050036;28;20044;-68
2022/07/12 11:30:54;;;;;;;1.88;1.70;;;23.90;99.90;;;;;;5047630;28;20049;-67
2022/07/12 11:33:41;;;;;;;3.47;1.55;;;24.00;99.90;;;;;;5045570;28;20044;-67
2022/07/12 11:36:09;;;;;;;1.70;1.23;;;24.20;99.90;;;;;;5020278;28;20045;-67
2022/07/12 11:38:37;;;;;;;2.10;1.27;;;24.20;99.90;;;;;;5051534;28;20063;-68
2022/07/12 11:41:04;;;;;;;2.05;1.50;;;24.40;99.90;;;;;;5059475;28;20063;-68
2022/07/12 11:43:31;;;;;;;1.40;1.30;;;24.40;99.90;;;;;;5048924;28;20086;-68
2022/07/12 11:45:58;;;;;;;2.53;1.50;;;24.50;99.90;;;;;;5053275;28;20060;-68
2022/07/12 11:48:25;;;;;;;4.18;1.70;;;24.50;99.90;;;;;;5051502;28;20060;-67
2022/07/12 11:50:52;;;;;;;1.48;1.33;;;24.50;99.90;;;;;;5062323;28;20044;-68
2022/07/12 11:53:25;;;;;;;1.55;1.05;;;24.60;99.90;;;;;;5047562;28;20642;-68
2022/07/12 11:55:57;;;;;;;2.00;1.15;;;24.60;99.90;;;;;;5055619;28;20048;-68
2022/07/12 11:58:24;;;;;;;2.10;1.40;;;24.50;99.90;;;;;;5033485;28;20052;-68
2022/07/12 12:00:51;;;;;;;1.50;1.20;;;24.60;99.90;;;;;;5041583;28;20044;-68
2022/07/12 12:03:18;;;;;;;1.20;1.10;;;24.50;99.90;;;;;;5047326;28;20434;-68
2022/07/12 12:05:48;;;;;;;1.90;1.25;;;24.60;99.90;;;;;;5074454;28;20051;-68
2022/07/12 12:08:14;;;;;;;4.03;1.40;;;24.60;99.90;;;;;;5065544;28;20143;-68
2022/07/12 12:10:42;;;;;;;1.88;1.20;;;24.50;99.90;;;;;;5075338;28;20051;-68
2022/07/12 12:13:15;;;;;;;1.80;1.00;;;24.60;99.90;;;;;;5066212;28;20139;-68
2022/07/12 12:15:48;;;;;;;1.10;0.90;;;24.70;99.90;;;;;;5075410;28;20052;-68
2022/07/12 12:18:13;;;;;;;1.50;1.25;;;24.70;99.90;;;;;;5047849;28;20052;-68
2022/07/12 12:20:43;;;;;;;2.20;1.60;;;24.80;99.90;;;;;;5075006;28;20043;-67
2022/07/12 12:23:18;;;;;;;;;;;24.90;99.90;;;;;;5065141;28;20059;-68
2022/07/12 12:25:47;;;;;;;1.85;1.58;;;24.90;99.90;;;;;;5075693;28;19924;-67
2022/07/12 12:28:13;;;;;;;3.22;1.50;;;25.00;99.90;;;;;;5065404;28;20637;-68
2022/07/12 12:30:53;;;;;;;2.53;2.00;;;25.00;99.90;;;;;;5048685;28;20048;-69
2022/07/12 12:33:35;;;;;;;2.25;1.80;;;25.10;99.90;;;;;;5056701;28;20074;-69
2022/07/12 12:36:25;;;;;;;2.25;1.52;;;25.00;99.90;;;;;;5053582;28;20079;-68
2022/07/12 12:38:58;;;;;;;3.70;1.70;;;25.20;99.90;;;;;;5057341;28;20052;-68
2022/07/12 12:41:30;;;;;;;3.45;1.60;;;25.40;99.90;;;;;;5068980;28;20353;-68
2022/07/12 12:44:03;;;;;;;1.50;1.40;;;25.40;99.90;;;;;;5058417;28;20060;-67
2022/07/12 12:47:30;;;;;;;2.15;1.38;;;25.30;99.90;;;;;;5055540;28;20048;-68
2022/07/12 12:49:45;;;;;;;2.50;1.23;;;25.30;99.90;;;;;;5040167;28;20049;-68
2022/07/12 12:52:11;;;;;;;1.77;1.37;;;25.40;99.90;;;;;;5044923;28;20238;-68
2022/07/12 12:54:41;;;;;;;1.42;1.02;;;25.40;99.90;;;;;;5031811;28;20044;-68
2022/07/12 12:57:07;;;;;;;2.58;1.40;;;25.50;99.90;;;;;;5049590;28;20076;-68
2022/07/12 12:59:34;;;;;;;1.65;1.30;;;25.60;99.90;;;;;;5030769;28;20049;-68